createdAt,value
2023-02-15T00:00:21.814Z,2.90
2023-02-15T00:02:49.333Z,3.00
2023-02-15T00:05:16.901Z,3.00
2023-02-15T00:07:44.430Z,2.96
2023-02-15T00:10:13.033Z,2.79
2023-02-15T00:12:40.556Z,2.86
2023-02-15T00:15:08.508Z,2.76
2023-02-15T00:17:35.923Z,2.70
2023-02-15T00:20:03.755Z,2.69
2023-02-15T00:22:31.244Z,2.67
2023-02-15T00:24:58.718Z,2.72
2023-02-15T00:27:26.173Z,2.62
2023-02-15T00:29:53.706Z,2.56
2023-02-15T00:32:21.195Z,2.53
2023-02-15T00:34:49.827Z,2.42
2023-02-15T00:37:17.575Z,2.30
2023-02-15T00:39:48.248Z,2.15
2023-02-15T00:42:15.723Z,2.20
2023-02-15T00:44:43.236Z,2.16
2023-02-15T00:47:10.640Z,1.98
2023-02-15T00:49:39.573Z,1.89
2023-02-15T00:52:07.053Z,1.77
2023-02-15T00:54:35.719Z,1.76
2023-02-15T00:57:03.193Z,1.83
2023-02-15T00:59:30.787Z,1.74
2023-02-15T01:01:58.494Z,1.85
2023-02-15T01:04:26.025Z,1.93
2023-02-15T01:06:53.554Z,1.87
2023-02-15T01:09:21.149Z,1.77
2023-02-15T01:11:48.694Z,1.77
2023-02-15T01:14:16.148Z,1.78
2023-02-15T01:16:43.602Z,1.60
2023-02-15T01:19:11.073Z,1.70
2023-02-15T01:21:41.644Z,1.45
2023-02-15T01:24:15.550Z,1.45
2023-02-15T01:26:43.037Z,1.33
2023-02-15T01:29:10.493Z,1.33
2023-02-15T01:31:40.170Z,1.33
2023-02-15T01:34:07.925Z,1.24
2023-02-15T01:36:36.377Z,1.32
2023-02-15T01:39:04.039Z,1.41
2023-02-15T01:41:32.480Z,1.47
2023-02-15T01:44:04.265Z,1.46
2023-02-15T01:46:51.406Z,1.28
2023-02-15T01:49:23.867Z,1.37
2023-02-15T01:51:53.909Z,1.15
2023-02-15T01:54:34.994Z,1.23
2023-02-15T01:57:12.134Z,1.30
2023-02-15T01:59:43.006Z,1.29
2023-02-15T02:02:16.506Z,1.42
2023-02-15T02:04:56.596Z,1.41
2023-02-15T02:07:30.294Z,1.45
2023-02-15T02:10:02.358Z,1.36
2023-02-15T02:12:30.896Z,1.42
2023-02-15T02:14:59.126Z,1.83
2023-02-15T02:18:28.176Z,1.35
2023-02-15T02:21:12.032Z,0.96
2023-02-15T02:24:18.224Z,0.89
2023-02-15T02:27:23.876Z,0.98
2023-02-15T02:54:08.513Z,1.05
2023-02-15T02:56:42.227Z,0.76
2023-02-15T02:59:30.363Z,0.23
2023-02-15T03:02:17.603Z,-0.03
2023-02-15T03:04:59.605Z,-0.25
2023-02-15T03:07:30.758Z,0.04
2023-02-15T03:10:03.832Z,-0.20
2023-02-15T03:12:38.724Z,-0.27
2023-02-15T03:15:22.582Z,-0.03
2023-02-15T03:17:57.834Z,-0.37
2023-02-15T03:20:32.302Z,-0.33
2023-02-15T03:23:10.705Z,-0.37
2023-02-15T03:25:47.682Z,-0.39
2023-02-15T03:28:22.194Z,-0.27
2023-02-15T03:30:55.018Z,-0.03
2023-02-15T03:33:25.534Z,-0.26
2023-02-15T03:36:23.694Z,-0.16
2023-02-15T03:39:14.497Z,-0.26
2023-02-15T03:41:58.567Z,-0.04
2023-02-15T03:44:33.125Z,0.07
2023-02-15T03:47:09.870Z,0.09
2023-02-15T03:49:59.241Z,0.17
2023-02-15T03:52:29.422Z,0.03
2023-02-15T03:54:57.471Z,0.15
2023-02-15T03:57:48.554Z,0.07
2023-02-15T04:00:44.464Z,0.14
2023-02-15T04:03:24.896Z,0.18
2023-02-15T04:05:52.524Z,-0.04
2023-02-15T04:08:20.118Z,0.08
2023-02-15T04:10:53.606Z,0.22
2023-02-15T04:13:23.975Z,0.17
2023-02-15T04:16:08.156Z,0.12
2023-02-15T04:19:03.750Z,0.01
2023-02-15T04:21:50.610Z,0.14
2023-02-15T04:24:37.973Z,0.26
2023-02-15T04:27:06.842Z,0.24
2023-02-15T04:29:34.605Z,0.11
2023-02-15T04:32:03.574Z,0.18
2023-02-15T04:34:31.053Z,0.13
2023-02-15T04:36:58.568Z,0.16
2023-02-15T04:39:26.015Z,0.14
2023-02-15T04:41:53.481Z,0.17
2023-02-15T04:44:20.885Z,0.21
2023-02-15T04:46:48.371Z,0.29
2023-02-15T04:49:16.538Z,0.35
2023-02-15T04:51:43.977Z,0.22
2023-02-15T04:54:11.512Z,0.16
2023-02-15T04:56:39.985Z,0.23
2023-02-15T04:59:08.038Z,0.16
2023-02-15T05:01:35.522Z,0.16
2023-02-15T05:04:03.636Z,0.22
2023-02-15T05:06:31.298Z,0.12
2023-02-15T05:09:00.269Z,0.19
2023-02-15T05:11:29.176Z,0.25
2023-02-15T05:13:56.757Z,0.30
2023-02-15T05:16:24.448Z,0.16
2023-02-15T05:18:52.046Z,0.19
2023-02-15T05:21:22.666Z,0.24
2023-02-15T05:23:50.149Z,0.20
2023-02-15T05:26:43.031Z,0.33
2023-02-15T05:29:11.418Z,0.39
2023-02-15T05:31:39.806Z,0.50
2023-02-15T05:34:07.504Z,0.59
2023-02-15T05:36:34.924Z,0.58
2023-02-15T05:39:02.307Z,0.61
2023-02-15T05:41:30.076Z,0.77
2023-02-15T05:43:57.894Z,0.73
2023-02-15T05:46:25.429Z,0.79
2023-02-15T05:48:52.875Z,0.76
2023-02-15T05:51:20.312Z,0.66
2023-02-15T05:53:47.897Z,0.80
2023-02-15T05:56:15.501Z,0.89
2023-02-15T05:58:44.002Z,0.94
2023-02-15T06:01:14.642Z,0.96
2023-02-15T06:03:42.647Z,0.98
2023-02-15T06:06:10.518Z,1.21
2023-02-15T06:08:39.711Z,1.29
2023-02-15T06:11:07.934Z,1.48
2023-02-15T06:13:38.590Z,1.58
2023-02-15T06:16:07.814Z,1.75
2023-02-15T06:18:36.756Z,1.81
2023-02-15T06:21:04.541Z,2.05
2023-02-15T06:23:32.537Z,1.98
2023-02-15T06:26:00.080Z,1.98
2023-02-15T06:28:27.694Z,2.13
2023-02-15T06:30:55.747Z,2.36
2023-02-15T06:33:23.590Z,2.52
2023-02-15T06:35:51.094Z,2.78
2023-02-15T06:38:18.619Z,2.91
2023-02-15T06:40:46.089Z,3.36
2023-02-15T06:43:13.527Z,3.27
2023-02-15T06:45:42.064Z,3.21
2023-02-15T06:48:09.627Z,3.35
2023-02-15T06:50:37.147Z,3.50
2023-02-15T06:53:04.842Z,3.55
2023-02-15T06:55:32.414Z,3.94
2023-02-15T06:57:59.833Z,4.02
2023-02-15T07:00:27.354Z,4.00
2023-02-15T07:02:59.182Z,4.45
2023-02-15T07:05:32.265Z,4.10
2023-02-15T07:08:01.411Z,4.20
2023-02-15T07:10:31.784Z,4.62
2023-02-15T07:12:59.325Z,4.65
2023-02-15T07:15:26.784Z,4.56
2023-02-15T07:17:54.296Z,4.84
2023-02-15T07:20:24.082Z,4.83
2023-02-15T07:22:52.391Z,4.62
2023-02-15T07:25:20.228Z,4.73
2023-02-15T07:27:47.999Z,4.88
2023-02-15T07:30:18.347Z,4.78
2023-02-15T07:33:05.773Z,4.82
2023-02-15T07:35:34.767Z,4.88
2023-02-15T07:38:02.742Z,4.64
2023-02-15T07:40:30.193Z,4.80
2023-02-15T07:43:00.196Z,4.82
2023-02-15T07:45:28.187Z,5.00
2023-02-15T07:47:55.913Z,5.14
2023-02-15T07:50:23.473Z,5.03
2023-02-15T07:52:50.957Z,5.34
2023-02-15T07:55:19.561Z,5.56
2023-02-15T07:57:49.459Z,5.78
2023-02-15T08:00:22.490Z,5.76
2023-02-15T08:03:13.821Z,5.73
2023-02-15T08:05:43.988Z,6.09
2023-02-15T08:08:30.695Z,5.92
2023-02-15T08:11:22.592Z,5.75
2023-02-15T08:14:00.508Z,5.66
2023-02-15T08:16:42.597Z,5.98
2023-02-15T08:19:11.437Z,6.42
2023-02-15T08:21:42.594Z,6.77
2023-02-15T08:24:12.686Z,6.18
2023-02-15T08:26:42.390Z,6.02
2023-02-15T08:29:11.006Z,6.34
2023-02-15T08:31:39.471Z,6.66
2023-02-15T08:34:07.723Z,7.02
2023-02-15T08:36:35.473Z,7.17
2023-02-15T08:39:06.046Z,6.97
2023-02-15T08:41:36.624Z,6.81
2023-02-15T08:44:07.740Z,6.85
2023-02-15T08:46:38.721Z,7.14
2023-02-15T08:49:06.682Z,7.24
2023-02-15T08:51:37.899Z,7.35
2023-02-15T08:54:09.542Z,7.68
2023-02-15T08:56:40.358Z,7.72
2023-02-15T08:59:17.383Z,7.90
2023-02-15T09:01:46.242Z,8.31
2023-02-15T09:04:14.213Z,8.29
2023-02-15T09:06:46.407Z,8.80
2023-02-15T09:09:16.853Z,8.79
2023-02-15T09:11:47.693Z,8.64
2023-02-15T09:14:18.755Z,8.89
2023-02-15T09:16:49.831Z,9.09
2023-02-15T09:19:19.477Z,8.94
2023-02-15T09:21:47.755Z,9.33
2023-02-15T09:24:18.197Z,9.53
2023-02-15T09:26:49.670Z,9.53
2023-02-15T09:29:19.669Z,9.46
2023-02-15T09:31:51.094Z,9.80
2023-02-15T09:34:22.905Z,9.78
2023-02-15T09:36:52.085Z,10.13
2023-02-15T09:39:26.573Z,10.39
2023-02-15T09:42:13.185Z,10.60
2023-02-15T09:45:05.319Z,10.60
2023-02-15T09:47:54.440Z,10.76
2023-02-15T09:51:03.948Z,10.71
2023-02-15T09:53:53.040Z,10.93
2023-02-15T09:56:29.550Z,11.15
2023-02-15T09:59:57.022Z,11.57
2023-02-15T10:02:43.077Z,11.76
2023-02-15T10:05:47.933Z,12.01
2023-02-15T10:08:54.301Z,12.31
2023-02-15T10:11:43.020Z,12.51
2023-02-15T10:14:38.753Z,12.13
2023-02-15T10:17:15.437Z,12.23
2023-02-15T10:19:55.256Z,12.33
2023-02-15T10:23:29.927Z,12.47
2023-02-15T10:26:15.024Z,11.96
2023-02-15T10:28:58.601Z,12.32
2023-02-15T10:31:51.900Z,12.56
2023-02-15T10:34:40.605Z,12.64
2023-02-15T10:37:54.424Z,12.90
2023-02-15T10:40:34.051Z,13.04
2023-02-15T10:43:49.712Z,12.82
2023-02-15T10:46:38.798Z,13.17
2023-02-15T10:49:27.470Z,13.52
2023-02-15T10:51:57.869Z,13.56
2023-02-15T10:54:42.140Z,13.34
2023-02-15T10:57:56.330Z,13.43
2023-02-15T11:01:03.339Z,13.63
2023-02-15T11:03:59.710Z,13.91
2023-02-15T11:06:29.080Z,13.83
2023-02-15T11:09:04.006Z,14.00
2023-02-15T11:11:46.081Z,14.51
2023-02-15T11:14:55.498Z,14.26
2023-02-15T11:17:51.693Z,14.58
2023-02-15T11:20:33.512Z,14.85
2023-02-15T11:23:03.278Z,14.64
2023-02-15T11:25:35.275Z,14.48
2023-02-15T11:28:11.390Z,14.82
2023-02-15T11:30:55.535Z,15.24
2023-02-15T11:33:36.369Z,15.69
2023-02-15T11:36:19.215Z,15.89
2023-02-15T11:38:52.273Z,15.82
2023-02-15T11:41:29.741Z,16.52
2023-02-15T11:44:12.303Z,16.77
2023-02-15T11:46:40.172Z,16.99
2023-02-15T11:49:27.121Z,16.78
2023-02-15T11:51:57.076Z,17.16
2023-02-15T11:54:36.644Z,17.53
2023-02-15T11:57:33.872Z,17.23
2023-02-15T12:00:27.301Z,17.74
2023-02-15T12:03:01.329Z,18.17
2023-02-15T12:05:29.321Z,18.66
2023-02-15T12:08:10.228Z,18.97
2023-02-15T12:10:50.120Z,19.15
2023-02-15T12:13:20.430Z,19.36
2023-02-15T12:15:52.648Z,18.99
2023-02-15T12:18:48.458Z,19.19
2023-02-15T12:21:27.614Z,19.25
2023-02-15T12:24:03.755Z,19.28
2023-02-15T12:26:36.328Z,19.57
2023-02-15T12:29:29.231Z,20.01
2023-02-15T12:31:57.206Z,19.89
2023-02-15T12:34:44.748Z,19.00
2023-02-15T12:37:35.630Z,19.02
2023-02-15T12:40:24.873Z,18.85
2023-02-15T12:42:52.364Z,19.21
2023-02-15T12:45:33.350Z,19.24
2023-02-15T12:48:21.588Z,19.60
2023-02-15T12:50:55.096Z,19.76
2023-02-15T12:53:34.555Z,20.12
2023-02-15T12:56:08.139Z,20.57
2023-02-15T12:58:41.088Z,20.92
2023-02-15T13:01:22.308Z,21.28
2023-02-15T13:04:05.831Z,20.72
2023-02-15T13:06:36.814Z,20.76
2023-02-15T13:09:21.875Z,21.13
2023-02-15T13:11:49.510Z,21.55
2023-02-15T13:14:29.907Z,21.14
2023-02-15T13:17:02.930Z,21.28
2023-02-15T13:19:43.595Z,21.07
2023-02-15T13:22:36.688Z,20.57
2023-02-15T13:25:23.953Z,20.93
2023-02-15T13:27:59.330Z,21.10
2023-02-15T13:30:36.223Z,21.61
2023-02-15T13:33:33.192Z,21.95
2023-02-15T13:36:21.689Z,21.93
2023-02-15T13:39:35.430Z,22.45
2023-02-15T13:42:07.349Z,22.63
2023-02-15T13:44:40.863Z,23.22
2023-02-15T13:47:26.450Z,23.33
2023-02-15T13:50:33.572Z,23.27
2023-02-15T13:53:40.562Z,23.08
2023-02-15T13:56:22.810Z,23.51
2023-02-15T13:59:30.008Z,23.39
2023-02-15T14:02:14.781Z,22.81
2023-02-15T14:05:26.971Z,23.16
2023-02-15T14:08:06.008Z,23.72
2023-02-15T14:11:09.301Z,24.34
2023-02-15T14:13:48.722Z,24.46
2023-02-15T14:17:07.287Z,24.85
2023-02-15T14:19:58.664Z,25.12
2023-02-15T14:22:47.427Z,24.65
2023-02-15T14:25:31.498Z,24.92
2023-02-15T14:28:18.549Z,25.07
2023-02-15T14:30:52.768Z,24.60
2023-02-15T14:33:43.811Z,24.97
2023-02-15T14:36:20.515Z,24.53
2023-02-15T14:39:35.045Z,24.23
2023-02-15T14:42:42.158Z,24.22
2023-02-15T14:45:56.545Z,24.49
2023-02-15T14:48:43.249Z,24.55
2023-02-15T14:51:11.299Z,24.70
2023-02-15T14:53:40.924Z,24.09
2023-02-15T14:56:15.276Z,24.04
2023-02-15T14:58:54.888Z,23.95
2023-02-15T15:01:34.592Z,23.58
2023-02-15T15:04:23.259Z,23.60
2023-02-15T15:07:24.174Z,23.26
2023-02-15T15:10:27.616Z,23.04
2023-02-15T15:12:57.779Z,22.69
2023-02-15T15:15:31.437Z,22.27
2023-02-15T15:18:08.991Z,22.01
2023-02-15T15:20:52.725Z,21.80
2023-02-15T15:23:20.162Z,21.36
2023-02-15T15:26:22.447Z,20.99
2023-02-15T15:28:50.211Z,20.40
2023-02-15T15:31:21.758Z,19.88
2023-02-15T15:34:18.583Z,18.97
2023-02-15T15:37:10.195Z,18.07
2023-02-15T15:40:08.151Z,17.34
2023-02-15T15:43:10.286Z,16.70
2023-02-15T15:46:19.044Z,15.98
2023-02-15T15:48:46.818Z,16.08
2023-02-15T15:51:29.517Z,15.63
2023-02-15T15:53:58.022Z,15.42
2023-02-15T15:56:32.537Z,14.80
2023-02-15T15:59:07.289Z,14.64
2023-02-15T16:01:53.561Z,14.22
2023-02-15T16:04:35.180Z,13.71
2023-02-15T16:07:35.208Z,13.35
2023-02-15T16:10:18.848Z,13.16
2023-02-15T16:12:52.915Z,12.97
2023-02-15T16:15:37.957Z,12.72
2023-02-15T16:18:27.645Z,12.59
2023-02-15T16:21:03.587Z,12.40
2023-02-15T16:23:39.916Z,12.27
2023-02-15T16:26:48.001Z,11.98
2023-02-15T16:29:18.431Z,11.77
2023-02-15T16:32:07.236Z,11.64
2023-02-15T16:34:35.870Z,11.54
2023-02-15T16:37:18.991Z,11.59
2023-02-15T16:39:50.211Z,11.42
2023-02-15T16:42:21.134Z,11.30
2023-02-15T16:45:18.933Z,11.31
2023-02-15T16:47:53.497Z,11.14
2023-02-15T16:50:34.484Z,11.03
2023-02-15T16:53:08.328Z,10.84
2023-02-15T16:55:44.251Z,10.71
2023-02-15T16:58:18.946Z,10.59
2023-02-15T17:00:47.752Z,10.42
2023-02-15T17:03:15.342Z,10.38
2023-02-15T17:05:50.943Z,10.31
2023-02-15T17:08:39.836Z,10.15
2023-02-15T17:11:24.992Z,9.99
2023-02-15T17:14:07.716Z,9.98
2023-02-15T17:16:38.665Z,9.84
2023-02-15T17:19:27.532Z,9.71
2023-02-15T17:22:04.352Z,9.77
2023-02-15T17:24:46.465Z,9.75
2023-02-15T17:27:23.481Z,9.73
2023-02-15T17:30:00.465Z,9.74
2023-02-15T17:32:35.381Z,9.78
2023-02-15T17:35:09.535Z,9.66
2023-02-15T17:37:45.461Z,9.46
2023-02-15T17:40:31.623Z,9.33
2023-02-15T17:43:19.138Z,9.07
2023-02-15T17:45:51.606Z,8.88
2023-02-15T17:48:35.743Z,8.74
2023-02-15T17:51:06.839Z,8.68
2023-02-15T17:53:36.693Z,8.66
2023-02-15T17:56:10.942Z,8.56
2023-02-15T17:58:39.407Z,8.35
2023-02-15T18:01:34.123Z,8.60
2023-02-15T18:04:20.821Z,8.10
2023-02-15T18:07:07.805Z,7.67
2023-02-15T18:09:54.031Z,7.53
2023-02-15T18:12:25.028Z,7.65
2023-02-15T18:15:06.177Z,6.88
2023-02-15T18:17:49.112Z,6.46
2023-02-15T18:20:30.117Z,6.32
2023-02-15T18:22:58.206Z,6.34
2023-02-15T18:25:27.824Z,6.31
2023-02-15T18:27:58.906Z,6.13
2023-02-15T18:30:27.189Z,6.05
2023-02-15T18:33:01.300Z,5.81
2023-02-15T18:35:33.961Z,5.72
2023-02-15T18:38:05.465Z,5.62
2023-02-15T18:40:33.101Z,5.68
2023-02-15T18:43:01.396Z,5.74
2023-02-15T18:45:36.216Z,5.58
2023-02-15T18:48:04.694Z,5.69
2023-02-15T18:50:36.581Z,5.69
2023-02-15T18:53:13.267Z,5.82
2023-02-15T18:55:40.758Z,5.86
2023-02-15T18:58:18.447Z,5.82
2023-02-15T19:00:50.384Z,5.86
2023-02-15T19:03:19.238Z,5.99
2023-02-15T19:05:48.741Z,6.03
2023-02-15T19:08:21.980Z,6.18
2023-02-15T19:10:53.447Z,6.28
2023-02-15T19:13:22.745Z,6.18
2023-02-15T19:15:52.981Z,6.28
2023-02-15T19:18:21.653Z,6.38
2023-02-15T19:20:50.907Z,6.31
2023-02-15T19:23:22.672Z,6.33
2023-02-15T19:25:53.157Z,6.18
2023-02-15T19:28:32.807Z,6.18
2023-02-15T19:31:00.438Z,6.25
2023-02-15T19:33:28.498Z,6.18
2023-02-15T19:35:57.895Z,6.05
2023-02-15T19:38:36.589Z,5.89
2023-02-15T19:41:09.730Z,5.91
2023-02-15T19:43:37.761Z,5.96
2023-02-15T19:46:05.745Z,5.91
2023-02-15T19:48:36.597Z,5.90
2023-02-15T19:51:06.150Z,6.00
2023-02-15T19:53:34.089Z,5.93
2023-02-15T19:56:03.967Z,5.97
2023-02-15T19:58:34.508Z,5.80
2023-02-15T20:01:04.373Z,5.97
2023-02-15T20:03:32.282Z,6.01
2023-02-15T20:06:01.261Z,5.97
2023-02-15T20:08:30.800Z,5.94
2023-02-15T20:10:59.506Z,5.88
2023-02-15T20:13:28.808Z,5.92
2023-02-15T20:16:16.322Z,5.84
2023-02-15T20:18:46.516Z,5.74
2023-02-15T20:21:17.575Z,5.68
2023-02-15T20:23:46.698Z,5.68
2023-02-15T20:26:18.490Z,5.57
2023-02-15T20:28:47.230Z,5.56
2023-02-15T20:31:18.728Z,5.52
2023-02-15T20:33:50.490Z,5.49
2023-02-15T20:36:21.123Z,5.34
2023-02-15T20:38:48.944Z,5.40
2023-02-15T20:41:36.032Z,5.20
2023-02-15T20:44:28.524Z,5.19
2023-02-15T20:46:59.291Z,5.07
2023-02-15T20:49:29.478Z,4.93
2023-02-15T20:51:58.445Z,4.70
2023-02-15T20:54:51.501Z,4.55
2023-02-15T20:57:40.065Z,4.38
2023-02-15T21:00:26.202Z,4.08
2023-02-15T21:02:59.130Z,4.04
2023-02-15T21:05:30.911Z,3.90
2023-02-15T21:07:58.534Z,3.84
2023-02-15T21:10:32.626Z,3.88
2023-02-15T21:13:01.835Z,3.84
2023-02-15T21:15:34.340Z,3.91
2023-02-15T21:18:27.237Z,3.73
2023-02-15T21:21:03.869Z,3.80
2023-02-15T21:23:40.610Z,3.73
2023-02-15T21:26:19.552Z,3.69
2023-02-15T21:28:48.258Z,3.56
2023-02-15T21:31:24.578Z,3.59
2023-02-15T21:33:52.553Z,3.60
2023-02-15T21:36:24.362Z,3.51
2023-02-15T21:38:53.820Z,3.47
2023-02-15T21:41:42.693Z,3.45
2023-02-15T21:44:40.356Z,3.65
2023-02-15T21:47:38.326Z,3.45
2023-02-15T21:50:27.404Z,3.50
2023-02-15T21:52:55.272Z,3.42
2023-02-15T21:55:22.868Z,3.42
2023-02-15T21:57:50.513Z,3.54
2023-02-15T22:00:21.699Z,3.59
2023-02-15T22:02:54.263Z,3.63
2023-02-15T22:05:27.420Z,3.58
2023-02-15T22:07:55.651Z,3.45
2023-02-15T22:10:24.454Z,3.50
2023-02-15T22:12:53.138Z,3.54
2023-02-15T22:15:23.649Z,3.58
2023-02-15T22:17:53.023Z,3.50
2023-02-15T22:20:23.797Z,3.45
2023-02-15T22:22:53.162Z,3.44
2023-02-15T22:25:26.449Z,3.37
2023-02-15T22:27:55.670Z,3.48
2023-02-15T22:30:29.392Z,3.55
2023-02-15T22:32:59.019Z,3.47
2023-02-15T22:35:29.110Z,3.41
2023-02-15T22:37:56.740Z,3.32
2023-02-15T22:40:32.699Z,3.36
2023-02-15T22:43:05.851Z,3.45
2023-02-15T22:45:36.302Z,3.49
2023-02-15T22:48:04.306Z,3.42
2023-02-15T22:50:34.792Z,3.36
2023-02-15T22:53:06.383Z,3.36
2023-02-15T22:55:38.041Z,3.33
2023-02-15T22:58:06.354Z,3.33
2023-02-15T23:00:40.567Z,3.30
2023-02-15T23:03:24.804Z,3.24
2023-02-15T23:05:53.252Z,3.27
2023-02-15T23:08:21.387Z,3.17
2023-02-15T23:10:56.216Z,3.20
2023-02-15T23:13:30.275Z,3.17
2023-02-15T23:16:04.311Z,3.05
2023-02-15T23:18:39.445Z,3.01
2023-02-15T23:21:22.987Z,2.98
2023-02-15T23:23:56.508Z,3.04
2023-02-15T23:26:31.255Z,3.01
2023-02-15T23:29:01.443Z,3.19
2023-02-15T23:31:35.046Z,3.14
2023-02-15T23:34:13.128Z,3.19
2023-02-15T23:36:40.622Z,3.16
2023-02-15T23:39:41.728Z,3.20
2023-02-15T23:42:30.752Z,3.19
2023-02-15T23:44:58.933Z,3.04
2023-02-15T23:47:55.013Z,2.97
2023-02-15T23:50:25.568Z,2.76
2023-02-15T23:52:55.405Z,2.80
2023-02-15T23:55:25.589Z,2.79
2023-02-15T23:57:57.047Z,2.85
